createdAt,value
2018-04-17T00:00:20.675Z,25.6
2018-04-17T00:01:09.633Z,25.6
2018-04-17T00:02:00.852Z,25.6
2018-04-17T00:02:50.369Z,25.4
2018-04-17T00:03:39.932Z,25.4
2018-04-17T00:04:30.157Z,25.4
2018-04-17T00:05:20.509Z,25.4
2018-04-17T00:06:09.506Z,25.3
2018-04-17T00:06:59.605Z,25.3
2018-04-17T00:07:49.631Z,25.3
2018-04-17T00:08:39.698Z,25.3
2018-04-17T00:09:29.788Z,25.2
2018-04-17T00:10:20.710Z,25.2
2018-04-17T00:11:10.561Z,25.2
2018-04-17T00:12:00.776Z,25.1
2018-04-17T00:12:50.664Z,25.1
2018-04-17T00:13:41.274Z,25.1
2018-04-17T00:14:30.231Z,25
2018-04-17T00:15:19.999Z,25
2018-04-17T00:16:10.783Z,25
2018-04-17T00:17:01.197Z,24.9
2018-04-17T00:17:51.219Z,24.9
2018-04-17T00:18:40.991Z,24.9
2018-04-17T00:19:31.656Z,24.9
2018-04-17T00:20:21.920Z,24.9
2018-04-17T00:21:12.309Z,24.8
2018-04-17T00:22:01.519Z,24.8
2018-04-17T00:22:51.389Z,24.8
2018-04-17T00:23:42.156Z,24.8
2018-04-17T00:24:31.922Z,24.7
2018-04-17T00:25:22.033Z,24.7
2018-04-17T00:26:12.667Z,24.6
2018-04-17T00:27:02.218Z,24.6
2018-04-17T00:27:51.630Z,24.6
2018-04-17T00:28:41.993Z,24.6
2018-04-17T00:29:32.382Z,24.6
2018-04-17T00:30:22.432Z,24.6
2018-04-17T00:31:11.859Z,24.5
2018-04-17T00:32:02.251Z,24.4
2018-04-17T00:32:52.292Z,24.4
2018-04-17T00:33:43.024Z,24.4
2018-04-17T00:34:33.026Z,24.4
2018-04-17T00:35:23.384Z,24.4
2018-04-17T00:36:12.912Z,24.4
2018-04-17T00:37:02.928Z,24.3
2018-04-17T00:37:53.269Z,24.3
2018-04-17T00:38:43.296Z,24.3
2018-04-17T00:39:32.536Z,24.3
2018-04-17T00:40:23.436Z,24.3
2018-04-17T00:41:13.238Z,24.2
2018-04-17T00:42:03.839Z,24.3
2018-04-17T00:42:53.074Z,24.2
2018-04-17T00:43:43.932Z,24.1
2018-04-17T00:44:33.464Z,24.1
2018-04-17T00:45:23.773Z,24.1
2018-04-17T00:46:13.906Z,24.1
2018-04-17T00:47:03.651Z,24.1
2018-04-17T00:47:53.984Z,24.1
2018-04-17T00:48:43.787Z,24.1
2018-04-17T00:49:34.417Z,24
2018-04-17T00:50:23.325Z,24
2018-04-17T00:51:13.997Z,24
2018-04-17T00:52:04.337Z,23.9
2018-04-17T00:52:53.902Z,23.9
2018-04-17T00:53:44.755Z,23.9
2018-04-17T00:54:33.090Z,23.9
2018-04-17T00:55:24.607Z,23.9
2018-04-17T00:56:14.895Z,23.9
2018-04-17T00:57:04.134Z,23.9
2018-04-17T00:57:53.930Z,23.8
2018-04-17T00:58:44.315Z,23.8
2018-04-17T00:59:34.867Z,23.8
2018-04-17T01:00:24.978Z,23.8
2018-04-17T01:01:15.277Z,23.8
2018-04-17T01:02:03.380Z,23.8
2018-04-17T01:02:54.548Z,23.8
2018-04-17T01:03:44.353Z,23.7
2018-04-17T01:04:34.673Z,23.7
2018-04-17T01:05:25.070Z,23.7
2018-04-17T01:06:15.460Z,23.7
2018-04-17T01:07:05.142Z,23.6
2018-04-17T01:07:55.194Z,23.6
2018-04-17T01:08:44.770Z,23.6
2018-04-17T01:09:35.352Z,23.6
2018-04-17T01:10:25.117Z,23.6
2018-04-17T01:11:16.049Z,23.6
2018-04-17T01:12:05.834Z,23.6
2018-04-17T01:12:56.139Z,23.6
2018-04-17T01:13:45.370Z,23.5
2018-04-17T01:14:36.340Z,23.5
2018-04-17T01:15:26.048Z,23.5
2018-04-17T01:16:15.611Z,23.5
2018-04-17T01:17:06.225Z,23.4
2018-04-17T01:17:55.702Z,23.4
2018-04-17T01:18:46.024Z,23.4
2018-04-17T01:19:36.382Z,23.4
2018-04-17T01:20:25.326Z,23.4
2018-04-17T01:21:15.709Z,23.4
2018-04-17T01:22:06.004Z,23.4
2018-04-17T01:22:56.631Z,23.4
2018-04-17T01:23:46.729Z,23.4
2018-04-17T01:24:36.801Z,23.4
2018-04-17T01:25:26.578Z,23.3
2018-04-17T01:26:16.376Z,23.3
2018-04-17T01:27:06.406Z,23.3
2018-04-17T01:27:57.301Z,23.3
2018-04-17T01:28:46.557Z,23.3
2018-04-17T01:29:37.151Z,23.3
2018-04-17T01:30:26.621Z,23.3
2018-04-17T01:31:15.853Z,23.3
2018-04-17T01:32:07.603Z,23.2
2018-04-17T01:32:57.170Z,23.2
2018-04-17T01:33:47.751Z,23.2
2018-04-17T01:34:37.752Z,23.2
2018-04-17T01:35:27.032Z,23.2
2018-04-17T01:36:17.373Z,23.2
2018-04-17T01:37:06.842Z,23.1
2018-04-17T01:37:56.654Z,23.1
2018-04-17T01:38:47.569Z,23.1
2018-04-17T01:39:37.634Z,23.1
2018-04-17T01:40:27.672Z,23.1
2018-04-17T01:41:17.447Z,23.1
2018-04-17T01:42:07.247Z,23.1
2018-04-17T01:42:57.904Z,23.1
2018-04-17T01:43:48.316Z,23.1
2018-04-17T01:44:38.238Z,23.1
2018-04-17T01:45:27.779Z,23.1
2018-04-17T01:46:17.556Z,23
2018-04-17T01:47:07.927Z,23.1
2018-04-17T01:47:58.279Z,23
2018-04-17T01:48:48.604Z,23
2018-04-17T01:49:38.388Z,23
2018-04-17T01:50:28.481Z,23
2018-04-17T01:51:18.501Z,22.9
2018-04-17T01:52:07.983Z,22.9
2018-04-17T01:52:58.349Z,22.9
2018-04-17T01:53:49.003Z,22.9
2018-04-17T01:54:39.022Z,22.9
2018-04-17T01:55:28.798Z,22.9
2018-04-17T01:56:19.742Z,22.9
2018-04-17T01:57:08.917Z,22.9
2018-04-17T01:57:58.986Z,22.9
2018-04-17T01:58:48.505Z,22.9
2018-04-17T01:59:38.559Z,22.9
2018-04-17T02:00:29.215Z,22.9
2018-04-17T02:01:18.956Z,22.9
2018-04-17T02:02:09.018Z,22.8
2018-04-17T02:02:59.648Z,22.8
2018-04-17T02:03:49.759Z,22.8
2018-04-17T02:04:39.272Z,22.8
2018-04-17T02:05:29.551Z,22.8
2018-04-17T02:06:19.057Z,22.8
2018-04-17T02:07:09.150Z,22.8
2018-04-17T02:07:59.476Z,22.8
2018-04-17T02:08:49.181Z,22.8
2018-04-17T02:09:39.377Z,22.8
2018-04-17T02:10:29.106Z,22.8
2018-04-17T02:11:20.520Z,22.8
2018-04-17T02:12:10.677Z,22.8
2018-04-17T02:13:00.762Z,22.8
2018-04-17T02:13:50.465Z,22.7
2018-04-17T02:14:39.415Z,22.8
2018-04-17T02:15:30.607Z,22.7
2018-04-17T02:16:20.642Z,22.7
2018-04-17T02:17:10.465Z,22.7
2018-04-17T02:18:01.065Z,22.7
2018-04-17T02:18:50.917Z,22.6
2018-04-17T02:19:40.628Z,22.6
2018-04-17T02:20:30.383Z,22.7
2018-04-17T02:21:20.469Z,22.6
2018-04-17T02:22:10.386Z,22.6
2018-04-17T02:23:00.884Z,22.6
2018-04-17T02:23:50.950Z,22.6
2018-04-17T02:24:41.547Z,22.6
2018-04-17T02:25:31.074Z,22.6
2018-04-17T02:26:21.416Z,22.6
2018-04-17T02:27:10.904Z,22.6
2018-04-17T02:28:01.854Z,22.6
2018-04-17T02:28:51.607Z,22.6
2018-04-17T02:29:41.647Z,22.6
2018-04-17T02:30:31.777Z,22.6
2018-04-17T02:31:21.022Z,22.6
2018-04-17T02:32:11.327Z,22.6
2018-04-17T02:33:01.675Z,22.5
2018-04-17T02:33:51.225Z,22.5
2018-04-17T02:34:41.492Z,22.5
2018-04-17T02:35:31.553Z,22.5
2018-04-17T02:36:22.194Z,22.5
2018-04-17T02:37:11.715Z,22.5
2018-04-17T02:38:02.330Z,22.5
2018-04-17T02:38:52.640Z,22.5
2018-04-17T02:39:41.902Z,22.5
2018-04-17T02:40:31.687Z,22.5
2018-04-17T02:41:22.271Z,22.5
2018-04-17T02:42:12.337Z,22.4
2018-04-17T02:43:02.712Z,22.4
2018-04-17T02:43:52.739Z,22.4
2018-04-17T02:44:42.646Z,22.4
2018-04-17T02:45:32.056Z,22.4
2018-04-17T02:46:23.243Z,22.4
2018-04-17T02:47:12.676Z,22.4
2018-04-17T02:48:02.015Z,22.4
2018-04-17T02:48:52.295Z,22.4
2018-04-17T02:49:42.908Z,22.4
2018-04-17T02:50:32.692Z,22.4
2018-04-17T02:51:23.606Z,22.4
2018-04-17T02:52:13.343Z,22.4
2018-04-17T02:53:02.558Z,22.4
2018-04-17T02:53:53.489Z,22.4
2018-04-17T02:54:43.608Z,22.4
2018-04-17T02:55:33.898Z,22.4
2018-04-17T02:56:22.562Z,22.4
2018-04-17T02:57:13.451Z,22.3
2018-04-17T02:58:03.270Z,22.3
2018-04-17T02:58:52.761Z,22.4
2018-04-17T02:59:43.129Z,22.3
2018-04-17T03:00:33.977Z,22.3
2018-04-17T03:01:23.754Z,22.3
2018-04-17T03:02:13.528Z,22.3
2018-04-17T03:03:03.733Z,22.3
2018-04-17T03:03:53.421Z,22.3
2018-04-17T03:04:44.131Z,22.3
2018-04-17T03:05:34.399Z,22.3
2018-04-17T03:06:23.887Z,22.3
2018-04-17T03:07:14.468Z,22.3
2018-04-17T03:08:03.753Z,22.3
2018-04-17T03:08:53.785Z,22.3
2018-04-17T03:09:44.441Z,22.3
2018-04-17T03:10:34.768Z,22.3
2018-04-17T03:11:24.560Z,22.3
2018-04-17T03:12:13.738Z,22.3
2018-04-17T03:13:04.623Z,22.3
2018-04-17T03:13:54.683Z,22.2
2018-04-17T03:14:44.549Z,22.3
2018-04-17T03:15:34.847Z,22.3
2018-04-17T03:16:25.184Z,22.3
2018-04-17T03:17:15.235Z,22.2
2018-04-17T03:18:05.335Z,22.2
2018-04-17T03:18:55.327Z,22.2
2018-04-17T03:19:45.470Z,22.2
2018-04-17T03:20:34.353Z,22.2
2018-04-17T03:21:25.794Z,22.2
2018-04-17T03:22:15.602Z,22.2
2018-04-17T03:23:05.636Z,22.2
2018-04-17T03:23:55.544Z,22.2
2018-04-17T03:24:46.124Z,22.2
2018-04-17T03:25:35.732Z,22.2
2018-04-17T03:26:25.057Z,22.2
2018-04-17T03:27:15.802Z,22.2
2018-04-17T03:28:05.857Z,22.1
2018-04-17T03:28:55.843Z,22.1
2018-04-17T03:29:45.634Z,22.1
2018-04-17T03:30:35.389Z,22.1
2018-04-17T03:31:26.037Z,22.1
2018-04-17T03:32:15.894Z,22.1
2018-04-17T03:33:05.909Z,22.1
2018-04-17T03:33:55.723Z,22.1
2018-04-17T03:34:45.699Z,22.1
2018-04-17T03:35:36.864Z,22.1
2018-04-17T03:36:26.694Z,22.1
2018-04-17T03:37:16.808Z,22.1
2018-04-17T03:38:06.797Z,22.1
2018-04-17T03:38:56.613Z,22.1
2018-04-17T03:39:46.946Z,22.1
2018-04-17T03:41:35.198Z,22.1
2018-04-17T03:42:25.379Z,22.1
2018-04-17T03:43:15.038Z,22.1
2018-04-17T03:44:04.890Z,22.1
2018-04-17T03:44:56.072Z,22
2018-04-17T03:46:00.160Z,22.1
2018-04-17T03:46:35.667Z,22.1
2018-04-17T03:47:25.322Z,22.1
2018-04-17T03:48:16.174Z,22.1
2018-04-17T03:49:04.936Z,22
2018-04-17T03:49:56.192Z,22
2018-04-17T03:50:45.691Z,22
2018-04-17T03:51:35.737Z,22
2018-04-17T03:52:26.004Z,22
2018-04-17T03:53:16.167Z,22
2018-04-17T03:54:05.608Z,22
2018-04-17T03:54:55.706Z,22
2018-04-17T03:55:45.208Z,22
2018-04-17T03:56:36.621Z,22
2018-04-17T03:57:26.447Z,22
2018-04-17T03:58:16.057Z,22
2018-04-17T03:59:35.373Z,21.9
2018-04-17T03:59:56.447Z,22
2018-04-17T04:01:01.325Z,22
2018-04-17T04:01:36.783Z,21.9
2018-04-17T04:02:26.051Z,21.9
2018-04-17T04:03:16.380Z,21.9
2018-04-17T04:04:05.306Z,21.9
2018-04-17T04:04:57.290Z,21.9
2018-04-17T04:05:46.865Z,21.9
2018-04-17T04:06:37.452Z,21.9
2018-04-17T04:07:26.497Z,21.9
2018-04-17T04:08:17.302Z,21.9
2018-04-17T04:09:06.530Z,21.9
2018-04-17T04:09:56.628Z,21.9
2018-04-17T04:10:47.219Z,21.9
2018-04-17T04:11:37.297Z,21.9
2018-04-17T04:12:42.208Z,21.9
2018-04-17T04:13:17.067Z,21.8
2018-04-17T04:14:21.897Z,21.8
2018-04-17T04:14:56.747Z,21.8
2018-04-17T04:15:46.530Z,21.8
2018-04-17T04:16:52.276Z,21.8
2018-04-17T04:17:42.021Z,21.8
2018-04-17T04:18:33.096Z,21.8
2018-04-17T04:19:22.158Z,21.8
2018-04-17T04:19:58.401Z,21.8
2018-04-17T04:20:47.671Z,21.8
2018-04-17T04:21:37.761Z,21.8
2018-04-17T04:22:42.678Z,21.8
2018-04-17T04:23:17.839Z,21.8
2018-04-17T04:24:58.743Z,21.8
2018-04-17T04:25:49.226Z,21.8
2018-04-17T04:26:38.344Z,21.7
2018-04-17T04:27:29.011Z,21.8
2018-04-17T04:28:18.668Z,21.7
2018-04-17T04:29:08.458Z,21.7
2018-04-17T04:29:58.885Z,21.7
2018-04-17T04:30:48.383Z,21.7
2018-04-17T04:31:38.213Z,21.7
2018-04-17T04:32:28.229Z,21.7
2018-04-17T04:33:18.631Z,21.7
2018-04-17T04:34:08.396Z,21.7
2018-04-17T04:34:58.853Z,21.7
2018-04-17T04:35:48.832Z,21.7
2018-04-17T04:36:53.255Z,21.7
2018-04-17T04:37:28.898Z,21.7
2018-04-17T04:38:19.265Z,21.7
2018-04-17T04:39:08.855Z,21.7
2018-04-17T04:39:58.861Z,21.7
2018-04-17T04:40:49.635Z,21.7
2018-04-17T04:41:39.537Z,21.7
2018-04-17T04:42:28.805Z,21.7
2018-04-17T04:43:19.763Z,21.7
2018-04-17T04:44:24.880Z,21.7
2018-04-17T04:45:00.087Z,21.6
2018-04-17T04:45:49.880Z,21.7
2018-04-17T04:46:39.596Z,21.7
2018-04-17T04:47:29.860Z,21.7
2018-04-17T04:48:20.275Z,21.7
2018-04-17T04:49:08.645Z,21.7
2018-04-17T04:50:00.151Z,21.7
2018-04-17T04:51:39.969Z,21.6
2018-04-17T04:52:30.550Z,21.6
2018-04-17T04:53:20.865Z,21.6
2018-04-17T04:54:10.440Z,21.6
2018-04-17T04:55:00.192Z,21.7
2018-04-17T04:55:50.249Z,21.6
2018-04-17T04:56:40.709Z,21.6
2018-04-17T04:57:31.166Z,21.6
2018-04-17T04:58:35.225Z,21.6
2018-04-17T04:59:10.038Z,21.6
2018-04-17T05:00:00.388Z,21.7
2018-04-17T05:00:50.357Z,21.6
2018-04-17T05:01:41.091Z,21.6
2018-04-17T05:02:31.171Z,21.6
2018-04-17T05:03:20.355Z,21.6
2018-04-17T05:04:10.931Z,21.6
2018-04-17T05:05:15.824Z,21.6
2018-04-17T05:05:51.117Z,21.6
2018-04-17T05:06:41.705Z,21.6
2018-04-17T05:07:31.476Z,21.6
2018-04-17T05:08:21.544Z,21.6
2018-04-17T05:09:12.011Z,21.6
2018-04-17T05:10:16.033Z,21.6
2018-04-17T05:10:51.514Z,21.6
2018-04-17T05:11:40.859Z,21.6
2018-04-17T05:12:30.978Z,21.6
2018-04-17T05:13:21.114Z,21.6
2018-04-17T05:14:11.702Z,21.6
2018-04-17T05:15:02.262Z,21.6
2018-04-17T05:15:51.871Z,21.6
2018-04-17T05:16:42.216Z,21.6
2018-04-17T05:17:46.669Z,21.6
2018-04-17T05:18:21.394Z,21.6
2018-04-17T05:19:12.321Z,21.6
2018-04-17T05:20:01.097Z,21.6
2018-04-17T05:20:52.543Z,21.6
2018-04-17T05:21:42.498Z,21.6
2018-04-17T05:22:32.333Z,21.6
2018-04-17T05:23:55.176Z,21.6
2018-04-17T05:24:12.185Z,21.6
2018-04-17T05:25:17.213Z,21.6
2018-04-17T05:25:53.051Z,21.6
2018-04-17T05:26:43.366Z,21.5
2018-04-17T05:27:32.089Z,21.6
2018-04-17T05:28:23.528Z,21.6
2018-04-17T05:29:12.537Z,21.6
2018-04-17T05:30:04.251Z,21.6
2018-04-17T05:30:53.474Z,21.6
2018-04-17T05:31:43.516Z,21.6
2018-04-17T05:32:32.829Z,21.6
2018-04-17T05:33:54.271Z,21.6
2018-04-17T05:34:13.613Z,21.6
2018-04-17T05:35:02.918Z,21.6
2018-04-17T05:35:53.853Z,21.6
2018-04-17T05:36:44.278Z,21.6
2018-04-17T05:37:33.916Z,21.5
2018-04-17T05:38:38.713Z,21.5
2018-04-17T05:39:13.840Z,21.5
2018-04-17T05:40:04.723Z,21.5
2018-04-17T05:40:54.508Z,21.5
2018-04-17T05:41:43.843Z,21.5
2018-04-17T05:42:34.110Z,21.5
2018-04-17T05:43:24.150Z,21.5
2018-04-17T05:44:14.735Z,21.6
2018-04-17T05:45:18.942Z,21.5
2018-04-17T05:45:54.567Z,21.5
2018-04-17T05:46:44.617Z,21.5
2018-04-17T05:47:35.460Z,21.5
2018-04-17T05:48:24.607Z,21.5
2018-04-17T05:49:29.450Z,21.5
2018-04-17T05:50:04.689Z,21.5
2018-04-17T05:50:54.885Z,21.5
2018-04-17T05:51:45.803Z,21.5
2018-04-17T05:52:35.093Z,21.5
2018-04-17T05:53:25.257Z,21.5
2018-04-17T05:54:15.529Z,21.5
2018-04-17T05:55:05.855Z,21.5
2018-04-17T05:56:10.304Z,21.5
2018-04-17T05:56:45.714Z,21.5
2018-04-17T05:57:35.547Z,21.4
2018-04-17T05:58:25.811Z,21.5
2018-04-17T05:59:30.283Z,21.5
2018-04-17T06:00:20.072Z,21.5
2018-04-17T06:00:56.023Z,21.5
2018-04-17T06:02:00.156Z,21.5
2018-04-17T06:02:36.139Z,21.5
2018-04-17T06:03:25.652Z,21.5
2018-04-17T06:04:15.739Z,21.5
2018-04-17T06:05:06.101Z,21.5
2018-04-17T06:05:56.007Z,21.5
2018-04-17T06:06:45.406Z,21.5
2018-04-17T06:07:35.719Z,21.5
2018-04-17T06:08:24.686Z,21.5
2018-04-17T06:09:15.624Z,21.4
2018-04-17T06:10:06.098Z,21.5
2018-04-17T06:10:56.041Z,21.5
2018-04-17T06:11:46.380Z,21.5
2018-04-17T06:12:50.783Z,21.5
2018-04-17T06:13:26.730Z,21.5
2018-04-17T06:14:16.762Z,21.5
2018-04-17T06:15:06.508Z,21.5
2018-04-17T06:15:55.844Z,21.5
2018-04-17T06:17:17.990Z,21.5
2018-04-17T06:17:36.398Z,21.5
2018-04-17T06:18:25.728Z,21.5
2018-04-17T06:19:16.319Z,21.5
2018-04-17T06:20:05.881Z,21.5
2018-04-17T06:20:56.600Z,21.5
2018-04-17T06:21:46.567Z,21.5
2018-04-17T06:22:36.918Z,21.5
2018-04-17T06:23:42.311Z,21.5
2018-04-17T06:24:17.237Z,21.5
2018-04-17T06:25:07.741Z,21.5
2018-04-17T06:25:56.768Z,21.5
2018-04-17T06:26:47.126Z,21.5
2018-04-17T06:27:37.252Z,21.5
2018-04-17T06:28:26.553Z,21.5
2018-04-17T06:29:17.027Z,21.5
2018-04-17T06:30:07.304Z,21.5
2018-04-17T06:31:12.374Z,21.5
2018-04-17T06:32:01.857Z,21.5
2018-04-17T06:32:37.608Z,21.5
2018-04-17T06:33:27.317Z,21.4
2018-04-17T06:34:17.797Z,21.5
2018-04-17T06:35:08.117Z,21.4
2018-04-17T06:35:58.032Z,21.5
2018-04-17T06:36:48.154Z,21.4
2018-04-17T06:37:37.985Z,21.4
2018-04-17T06:38:43.401Z,21.4
2018-04-17T06:39:18.162Z,21.5
2018-04-17T06:40:08.177Z,21.4
2018-04-17T06:40:58.456Z,21.5
2018-04-17T06:41:49.478Z,21.5
2018-04-17T06:42:38.317Z,21.4
2018-04-17T06:43:29.108Z,21.5
2018-04-17T06:44:19.473Z,21.4
2018-04-17T06:45:08.009Z,21.4
2018-04-17T06:45:59.043Z,21.5
2018-04-17T06:46:49.147Z,21.4
2018-04-17T06:47:55.345Z,21.5
2018-04-17T06:48:43.346Z,21.4
2018-04-17T06:49:20.311Z,21.4
2018-04-17T06:50:09.448Z,21.4
2018-04-17T06:50:58.962Z,21.4
2018-04-17T06:51:49.339Z,21.4
2018-04-17T06:52:40.162Z,21.4
2018-04-17T06:53:29.729Z,21.4
2018-04-17T06:54:19.437Z,21.4
2018-04-17T06:55:09.873Z,21.4
2018-04-17T06:55:58.661Z,21.4
2018-04-17T06:56:49.961Z,21.4
2018-04-17T06:58:11.928Z,21.4
2018-04-17T06:58:28.758Z,21.4
2018-04-17T06:59:20.500Z,21.4
2018-04-17T07:00:10.461Z,21.4
2018-04-17T07:01:15.220Z,21.4
2018-04-17T07:02:05.231Z,21.5
2018-04-17T07:02:40.104Z,21.4
2018-04-17T07:03:29.984Z,21.4
2018-04-17T07:04:20.459Z,21.4
2018-04-17T07:05:10.800Z,21.5
2018-04-17T07:06:01.324Z,21.4
2018-04-17T07:06:50.718Z,21.4
2018-04-17T07:07:41.492Z,21.4
2018-04-17T07:08:30.204Z,21.4
2018-04-17T07:09:21.451Z,21.4
2018-04-17T07:10:10.914Z,21.4
2018-04-17T07:11:00.989Z,21.5
2018-04-17T07:11:50.683Z,21.4
2018-04-17T07:12:41.621Z,21.4
2018-04-17T07:13:30.073Z,21.4
2018-04-17T07:14:20.922Z,21.4
2018-04-17T07:15:11.531Z,21.4
2018-04-17T07:16:01.334Z,21.4
2018-04-17T07:16:51.818Z,21.4
2018-04-17T07:17:40.772Z,21.5
2018-04-17T07:18:31.060Z,21.4
2018-04-17T07:19:21.669Z,21.4
2018-04-17T07:20:11.741Z,21.4
2018-04-17T07:21:02.085Z,21.4
2018-04-17T07:22:06.195Z,21.4
2018-04-17T07:22:41.967Z,21.4
2018-04-17T07:23:31.448Z,21.4
2018-04-17T07:24:21.175Z,21.4
2018-04-17T07:25:11.895Z,21.4
2018-04-17T07:26:02.127Z,21.4
2018-04-17T07:26:51.298Z,21.4
2018-04-17T07:27:41.685Z,21.4
2018-04-17T07:28:32.111Z,21.4
2018-04-17T07:29:36.886Z,21.4
2018-04-17T07:30:11.669Z,21.4
2018-04-17T07:31:02.318Z,21.4
2018-04-17T07:31:51.743Z,21.4
2018-04-17T07:32:42.546Z,21.4
2018-04-17T07:33:32.811Z,21.4
2018-04-17T07:34:36.668Z,21.4
2018-04-17T07:35:12.564Z,21.4
2018-04-17T07:36:02.351Z,21.4
2018-04-17T07:36:53.196Z,21.4
2018-04-17T07:37:42.295Z,21.4
2018-04-17T07:38:32.936Z,21.4
2018-04-17T07:39:22.853Z,21.4
2018-04-17T07:40:13.238Z,21.4
2018-04-17T07:41:03.105Z,21.4
2018-04-17T07:41:53.634Z,21.4
2018-04-17T07:42:43.373Z,21.4
2018-04-17T07:43:48.880Z,21.4
2018-04-17T07:44:23.820Z,21.4
2018-04-17T07:45:27.770Z,21.4
2018-04-17T07:46:03.687Z,21.4
2018-04-17T07:46:53.962Z,21.4
2018-04-17T07:47:43.064Z,21.4
2018-04-17T07:48:34.580Z,21.4
2018-04-17T07:49:38.869Z,21.4
2018-04-17T07:50:13.748Z,21.4
2018-04-17T07:51:04.081Z,21.4
2018-04-17T07:51:53.325Z,21.4
2018-04-17T07:52:44.485Z,21.4
2018-04-17T07:53:34.252Z,21.4
2018-04-17T07:54:23.972Z,21.4
2018-04-17T07:55:14.392Z,21.4
2018-04-17T07:56:05.317Z,21.4
2018-04-17T07:56:54.167Z,21.4
2018-04-17T07:57:44.864Z,21.4
2018-04-17T07:58:35.002Z,21.4
2018-04-17T07:59:24.608Z,21.4
2018-04-17T08:00:13.919Z,21.4
2018-04-17T08:01:04.858Z,21.4
2018-04-17T08:01:55.451Z,21.4
2018-04-17T08:02:44.919Z,21.4
2018-04-17T08:03:34.719Z,21.4
2018-04-17T08:04:24.690Z,21.4
2018-04-17T08:05:14.626Z,21.4
2018-04-17T08:06:04.948Z,21.4
2018-04-17T08:07:09.663Z,21.4
2018-04-17T08:07:45.638Z,21.4
2018-04-17T08:08:35.426Z,21.4
2018-04-17T08:09:24.359Z,21.4
2018-04-17T08:10:14.768Z,21.4
2018-04-17T08:11:04.771Z,21.4
2018-04-17T08:11:56.436Z,21.4
2018-04-17T08:12:45.137Z,21.4
2018-04-17T08:13:35.277Z,21.4
2018-04-17T08:14:24.805Z,21.4
2018-04-17T08:15:14.530Z,21.4
2018-04-17T08:16:55.497Z,21.4
2018-04-17T08:17:46.638Z,21.4
2018-04-17T08:18:35.922Z,21.4
2018-04-17T08:19:26.408Z,21.4
2018-04-17T08:20:15.985Z,21.4
2018-04-17T08:21:06.321Z,21.4
2018-04-17T08:21:55.952Z,21.4
2018-04-17T08:22:46.155Z,21.4
2018-04-17T08:23:50.643Z,21.4
2018-04-17T08:24:26.874Z,21.4
2018-04-17T08:25:16.983Z,21.4
2018-04-17T08:26:06.726Z,21.4
2018-04-17T08:27:26.126Z,21.4
2018-04-17T08:27:46.861Z,21.4
2018-04-17T08:28:35.834Z,21.4
2018-04-17T08:29:27.043Z,21.4
2018-04-17T08:30:32.093Z,21.4
2018-04-17T08:31:06.039Z,21.4
2018-04-17T08:31:57.699Z,21.4
2018-04-17T08:32:47.099Z,21.4
2018-04-17T08:33:36.997Z,21.4
2018-04-17T08:34:27.422Z,21.4
2018-04-17T08:35:16.943Z,21.4
2018-04-17T08:36:06.781Z,21.4
2018-04-17T08:36:57.886Z,21.4
2018-04-17T08:37:47.717Z,21.4
2018-04-17T08:38:38.264Z,21.4
2018-04-17T08:39:27.918Z,21.4
2018-04-17T08:40:18.119Z,21.4
2018-04-17T08:41:07.645Z,21.4
2018-04-17T08:41:58.026Z,21.4
2018-04-17T08:42:48.085Z,21.4
2018-04-17T08:43:37.794Z,21.4
2018-04-17T08:44:28.455Z,21.4
2018-04-17T08:45:18.516Z,21.4
2018-04-17T08:46:08.583Z,21.4
2018-04-17T08:47:30.669Z,21.4
2018-04-17T08:47:48.255Z,21.4
2018-04-17T08:48:38.185Z,21.4
2018-04-17T08:49:27.561Z,21.4
2018-04-17T08:50:18.868Z,21.4
2018-04-17T08:51:08.121Z,21.4
2018-04-17T08:51:58.762Z,21.4
2018-04-17T08:52:48.285Z,21.4
2018-04-17T08:53:38.510Z,21.4
2018-04-17T08:54:29.648Z,21.4
2018-04-17T08:55:18.235Z,21.4
2018-04-17T08:56:08.448Z,21.4
2018-04-17T08:56:58.910Z,21.4
2018-04-17T08:57:49.059Z,21.4
2018-04-17T08:58:39.215Z,21.4
2018-04-17T08:59:44.940Z,21.4
2018-04-17T09:00:19.865Z,21.4
2018-04-17T09:01:24.833Z,21.4
2018-04-17T09:01:58.750Z,21.4
2018-04-17T09:03:04.154Z,21.4
2018-04-17T09:03:44.501Z,21.4
2018-04-17T09:04:33.830Z,21.4
2018-04-17T09:05:25.327Z,21.4
2018-04-17T09:06:46.047Z,21.4
2018-04-17T09:07:04.806Z,21.4
2018-04-17T09:07:53.879Z,21.4
2018-04-17T09:08:44.815Z,21.4
2018-04-17T09:09:34.759Z,21.4
2018-04-17T09:10:24.626Z,21.4
2018-04-17T09:11:15.648Z,21.4
2018-04-17T09:12:05.022Z,21.4
2018-04-17T09:12:53.520Z,21.4
2018-04-17T09:13:44.874Z,21.4
2018-04-17T09:14:34.408Z,21.4
2018-04-17T09:15:39.313Z,21.4
2018-04-17T09:16:15.044Z,21.4
2018-04-17T09:17:04.654Z,21.4
2018-04-17T09:17:54.843Z,21.4
2018-04-17T09:18:45.253Z,21.4
2018-04-17T09:19:35.856Z,21.4
2018-04-17T09:20:25.659Z,21.4
2018-04-17T09:21:14.282Z,21.4
2018-04-17T09:22:05.747Z,21.4
2018-04-17T09:23:09.379Z,21.4
2018-04-17T09:24:01.163Z,21.4
2018-04-17T09:24:34.408Z,21.4
2018-04-17T09:25:40.039Z,21.4
2018-04-17T09:26:16.261Z,21.4
2018-04-17T09:27:05.106Z,21.4
2018-04-17T09:27:55.653Z,21.4
2018-04-17T09:28:46.261Z,21.4
2018-04-17T09:29:36.580Z,21.4
2018-04-17T09:30:41.061Z,21.4
2018-04-17T09:31:15.848Z,21.4
2018-04-17T09:32:06.826Z,21.4
2018-04-17T09:32:56.913Z,21.4
2018-04-17T09:33:46.633Z,21.4
2018-04-17T09:34:37.002Z,21.4
2018-04-17T09:35:26.774Z,21.4
2018-04-17T09:36:17.026Z,21.4
2018-04-17T09:37:06.696Z,21.4
2018-04-17T09:37:56.954Z,21.4
2018-04-17T09:39:01.416Z,21.4
2018-04-17T09:39:36.243Z,21.4
2018-04-17T09:40:27.188Z,21.4
2018-04-17T09:41:17.303Z,21.4
2018-04-17T09:42:07.038Z,21.4
2018-04-17T09:42:56.982Z,21.4
2018-04-17T09:43:47.392Z,21.4
2018-04-17T09:44:37.640Z,21.4
2018-04-17T09:45:27.712Z,21.4
2018-04-17T09:46:17.545Z,21.4
2018-04-17T09:47:07.837Z,21.4
2018-04-17T09:47:57.160Z,21.4
2018-04-17T09:48:47.509Z,21.4
2018-04-17T09:49:37.632Z,21.4
2018-04-17T09:50:42.804Z,21.4
2018-04-17T09:51:17.951Z,21.4
2018-04-17T09:52:06.157Z,21.4
2018-04-17T09:52:58.402Z,21.4
2018-04-17T09:53:47.642Z,21.4
2018-04-17T09:54:38.217Z,21.4
2018-04-17T09:55:28.038Z,21.4
2018-04-17T09:56:17.951Z,21.4
2018-04-17T09:57:08.848Z,21.4
2018-04-17T09:58:12.920Z,21.4
2018-04-17T09:59:03.032Z,21.4
2018-04-17T09:59:38.097Z,21.4
2018-04-17T10:00:42.732Z,21.4
2018-04-17T10:01:17.909Z,21.4
2018-04-17T10:02:09.031Z,21.4
2018-04-17T10:02:58.434Z,21.4
2018-04-17T10:03:48.923Z,21.4
2018-04-17T10:04:38.815Z,21.4
2018-04-17T10:05:28.828Z,21.4
2018-04-17T10:06:18.458Z,21.4
2018-04-17T10:07:09.099Z,21.4
2018-04-17T10:07:59.337Z,21.4
2018-04-17T10:08:50.194Z,21.4
2018-04-17T10:11:19.673Z,21.4
2018-04-17T10:12:09.923Z,21.4
2018-04-17T10:12:59.663Z,21.4
2018-04-17T10:13:48.883Z,21.4
2018-04-17T10:14:39.484Z,21.4
2018-04-17T10:15:29.531Z,21.4
2018-04-17T10:16:19.358Z,21.4
2018-04-17T10:17:09.304Z,21.4
2018-04-17T10:18:00.585Z,21.4
2018-04-17T10:18:49.555Z,21.4
2018-04-17T10:19:39.515Z,21.4
2018-04-17T10:20:30.083Z,21.4
2018-04-17T10:21:20.102Z,21.4
2018-04-17T10:22:10.383Z,21.4
2018-04-17T10:22:59.692Z,21.4
2018-04-17T10:23:50.271Z,21.4
2018-04-17T10:24:40.605Z,21.4
2018-04-17T10:25:30.632Z,21.4
2018-04-17T10:26:20.629Z,21.4
2018-04-17T10:27:10.769Z,21.4
2018-04-17T10:28:15.698Z,21.4
2018-04-17T10:29:05.262Z,21.4
2018-04-17T10:29:40.912Z,21.4
2018-04-17T10:30:30.835Z,21.4
2018-04-17T10:31:34.945Z,21.4
2018-04-17T10:32:10.533Z,21.4
2018-04-17T10:33:16.051Z,21.4
2018-04-17T10:34:28.016Z,21.4
2018-04-17T10:35:18.841Z,21.4
2018-04-17T10:36:09.195Z,21.4
2018-04-17T10:36:58.716Z,21.4
2018-04-17T10:37:48.477Z,21.4
2018-04-17T10:38:39.386Z,21.4
2018-04-17T10:39:28.395Z,21.4
2018-04-17T10:40:19.466Z,21.4
2018-04-17T10:41:08.764Z,21.4
2018-04-17T10:41:59.376Z,21.4
2018-04-17T10:42:48.907Z,21.4
2018-04-17T10:43:39.194Z,21.4
2018-04-17T10:44:29.004Z,21.4
2018-04-17T10:45:17.618Z,21.4
2018-04-17T10:46:08.944Z,21.4
2018-04-17T10:46:59.872Z,21.4
2018-04-17T10:47:48.033Z,21.4
2018-04-17T10:48:37.932Z,21.4
2018-04-17T10:49:28.050Z,21.4
2018-04-17T10:50:19.266Z,21.4
2018-04-17T10:51:09.522Z,21.4
2018-04-17T10:52:00.111Z,21.4
2018-04-17T10:52:49.348Z,21.4
2018-04-17T10:53:40.577Z,21.4
2018-04-17T10:54:29.748Z,21.4
2018-04-17T10:55:20.259Z,21.4
2018-04-17T10:56:09.363Z,21.4
2018-04-17T10:57:00.206Z,21.4
2018-04-17T10:57:49.868Z,21.4
2018-04-17T10:58:40.645Z,21.4
2018-04-17T10:59:29.286Z,21.4
2018-04-17T11:00:20.518Z,21.4
2018-04-17T11:01:10.583Z,21.4
2018-04-17T11:02:00.578Z,21.4
2018-04-17T11:02:50.680Z,21.4
2018-04-17T11:03:40.765Z,21.4
2018-04-17T11:04:31.082Z,21.4
2018-04-17T11:05:20.708Z,21.4
2018-04-17T11:06:11.223Z,21.4
2018-04-17T11:07:01.214Z,21.4
2018-04-17T11:07:51.592Z,21.4
2018-04-17T11:08:40.553Z,21.4
2018-04-17T11:09:30.457Z,21.4
2018-04-17T11:10:21.697Z,21.4
2018-04-17T11:11:11.583Z,21.4
2018-04-17T11:12:01.672Z,21.4
2018-04-17T11:12:52.018Z,21.4
2018-04-17T11:13:40.389Z,21.4